Thunder radar more information blitzortung!


Radar de pluja more information rain snow radar


Visita la nostra xarxa de llocs de meteo:

Template documentation
and downloads

And another site



No particular awareness of the weather is required.    There are no Weather-warnings

Pagina Historial Weather Underground text

Diari Resum January 13, 2016 Unitats:  Mètric    Imperial   Tant
« Previous Dia
SegĂźent Dia »
Diari Setmana Mensual Anual Personalitzada
  Maxima: Minima: Media:
Temperatura: 14.0 °C 6.8 °C 9.9 °C
Punt de rosada: 1.9 °C -2.7 °C -0.1 °C
Humitat: 54 % 40 % 50 %
Wind Speed: 14.8 km/h 0.0 km/h 4.6 km/h
RĂ fegues de vent: 14.8 km/h - -
Vent:- - SSW
Pression baro: 1030.0 hPa 1021.9 hPa -
Precipitacions: 0.0 mm    
Historical Graphs
 
 
Dades de taula per January 13, 2016
Temps Temperatura Punt de rosada Pression baro Vent Wind Speed RĂ fegues de vent Humitat Rainfall Rate (Hourly)
11:19 8.1 °C -0.7 °C 1030.0 hPa NNE 5.6 km/h 5.6 km/h 54 % 0.0 mm
11:24 8.0 °C -1.0 °C 1030.0 hPa ENE 5.6 km/h 5.6 km/h 53 % 0.0 mm
11:34 8.1 °C -0.9 °C 1030.0 hPa NE 1.9 km/h   53 % 0.0 mm
11:39 8.5 °C -0.6 °C 1030.0 hPa ENE 3.2 km/h 3.2 km/h 53 % 0.0 mm
11:44 8.7 °C -0.3 °C 1030.0 hPa NE 5.6 km/h 5.6 km/h 53 % 0.0 mm
11:49 8.8 °C -0.3 °C 1030.0 hPa ENE 5.6 km/h 5.6 km/h 53 % 0.0 mm
11:54 9.0 °C -0.1 °C 1029.0 hPa NNE 5.6 km/h 5.6 km/h 53 % 0.0 mm
11:59 9.3 °C 0.2 °C 1029.0 hPa ENE 3.9 km/h 3.9 km/h 53 % 0.0 mm
12:09 9.8 °C 0.4 °C 1029.0 hPa SE 5.6 km/h 5.6 km/h 52 % 0.0 mm
12:14 10.2 °C 0.8 °C 1029.0 hPa NE 3.7 km/h 3.7 km/h 52 % 0.0 mm
12:19 10.2 °C 0.8 °C 1029.0 hPa North 3.7 km/h 3.7 km/h 52 % 0.0 mm
12:24 10.4 °C 0.9 °C 1028.0 hPa ESE 7.4 km/h 7.4 km/h 52 % 0.0 mm
12:29 10.3 °C 0.9 °C 1028.0 hPa North 3.7 km/h 3.7 km/h 52 % 0.0 mm
12:34 10.7 °C 1.2 °C 1028.0 hPa East 5.6 km/h 5.6 km/h 52 % 0.0 mm
12:39 10.8 °C 1.1 °C 1028.0 hPa NE 5.6 km/h 5.6 km/h 51 % 0.0 mm
12:44 10.9 °C 1.2 °C 1028.0 hPa ENE 4.7 km/h 4.7 km/h 51 % 0.0 mm
12:49 10.9 °C 1.2 °C 1028.0 hPa NNE 3.7 km/h 3.7 km/h 51 % 0.0 mm
12:59 11.1 °C 1.3 °C 1028.0 hPa NE 4.2 km/h 4.2 km/h 51 % 0.0 mm
13:04 11.3 °C 1.5 °C 1028.0 hPa ENE 4.7 km/h 4.7 km/h 51 % 0.0 mm
13:09 11.4 °C 1.6 °C 1028.0 hPa ENE 4.2 km/h 4.2 km/h 51 % 0.0 mm
13:14 11.5 °C 1.7 °C 1028.0 hPa ENE 5.6 km/h 5.6 km/h 51 % 0.0 mm
13:19 11.4 °C 1.3 °C 1028.0 hPa East 5.6 km/h 5.6 km/h 50 % 0.0 mm
13:24 11.6 °C 1.5 °C 1027.0 hPa NNE 4.7 km/h 4.7 km/h 50 % 0.0 mm
13:29 11.8 °C 1.7 °C 1027.0 hPa ESE 5.8 km/h 5.8 km/h 50 % 0.0 mm
13:34 11.8 °C 1.4 °C 1027.0 hPa NE 3.7 km/h 3.7 km/h 49 % 0.0 mm
13:39 11.8 °C 1.4 °C 1027.0 hPa ESE 3.9 km/h 3.9 km/h 49 % 0.0 mm
13:44 12.0 °C 1.6 °C 1027.0 hPa ENE 5.6 km/h 5.6 km/h 49 % 0.0 mm
13:49 12.2 °C 1.8 °C 1027.0 hPa NNE 4.2 km/h 4.2 km/h 49 % 0.0 mm
13:54 12.3 °C 1.9 °C 1026.0 hPa NNW 2.3 km/h 2.3 km/h 49 % 0.0 mm
13:59 12.3 °C 1.9 °C 1026.0 hPa SW 4.2 km/h 4.2 km/h 49 % 0.0 mm
14:04 12.7 °C 1.9 °C 1026.0 hPa SW 3.7 km/h 3.7 km/h 48 % 0.0 mm
14:09 12.8 °C 1.4 °C 1026.0 hPa SW 9.7 km/h 9.7 km/h 46 % 0.0 mm
14:14 13.0 °C 1.6 °C 1026.0 hPa SW 5.6 km/h 5.6 km/h 46 % 0.0 mm
14:19 12.9 °C 0.6 °C 1026.0 hPa SW 12.2 km/h 12.2 km/h 43 % 0.0 mm
14:24 13.1 °C 0.8 °C 1026.0 hPa SW 11.1 km/h 11.1 km/h 43 % 0.0 mm
14:29 13.2 °C 0.6 °C 1026.0 hPa SSW 11.1 km/h 11.1 km/h 42 % 0.0 mm
14:34 13.4 °C 0.7 °C 1026.0 hPa SSW 7.4 km/h 7.4 km/h 42 % 0.0 mm
14:39 13.2 °C 0.2 °C 1026.0 hPa SW 14.8 km/h 14.8 km/h 41 % 0.0 mm
14:44 13.4 °C 0.7 °C 1026.0 hPa SW 7.9 km/h 7.9 km/h 42 % 0.0 mm
14:49 13.6 °C 0.9 °C 1026.0 hPa WSW 3.7 km/h 3.7 km/h 42 % 0.0 mm
14:54 13.5 °C 0.8 °C 1026.0 hPa SW 13.0 km/h 13.0 km/h 42 % 0.0 mm
14:59 13.5 °C 0.2 °C 1026.0 hPa WSW 13.0 km/h 13.0 km/h 40 % 0.0 mm
15:04 13.5 °C 0.2 °C 1026.0 hPa WSW 7.4 km/h 7.4 km/h 40 % 0.0 mm
15:09 13.8 °C 0.8 °C 1026.0 hPa WSW 9.5 km/h 9.5 km/h 41 % 0.0 mm
15:14 14.0 °C 1.3 °C 1026.0 hPa SW 9.0 km/h 9.0 km/h 42 % 0.0 mm
15:19 13.9 °C 1.5 °C 1026.0 hPa SSW 9.3 km/h 9.3 km/h 43 % 0.0 mm
15:24 13.7 °C 1.7 °C 1026.0 hPa South 11.1 km/h 11.1 km/h 44 % 0.0 mm
15:29 13.6 °C 1.6 °C 1026.0 hPa SSW 7.6 km/h 7.6 km/h 44 % 0.0 mm
15:34 13.6 °C 1.9 °C 1026.0 hPa SSW 3.2 km/h 3.2 km/h 45 % 0.0 mm
15:39 13.5 °C 1.8 °C 1026.0 hPa South 3.7 km/h 3.7 km/h 45 % 0.0 mm
15:44 13.3 °C 1.6 °C 1026.0 hPa SSW 5.6 km/h 5.6 km/h 45 % 0.0 mm
15:49 13.3 °C 1.6 °C 1026.0 hPa SW 5.6 km/h 5.6 km/h 45 % 0.0 mm
15:54 13.2 °C 1.5 °C 1026.0 hPa SSE 3.7 km/h 3.7 km/h 45 % 0.0 mm
15:59 13.1 °C 1.7 °C 1026.0 hPa SW 5.0 km/h 5.0 km/h 46 % 0.0 mm
16:04 12.8 °C 1.2 °C 1026.0 hPa WSW 13.0 km/h 13.0 km/h 45 % 0.0 mm
16:14 12.5 °C 0.9 °C 1024.9 hPa SW 9.3 km/h 9.3 km/h 45 % 0.0 mm
16:19 12.5 °C 1.2 °C 1024.9 hPa SW 6.9 km/h 6.9 km/h 46 % 0.0 mm
16:24 12.4 °C 1.1 °C 1024.9 hPa SW 7.4 km/h 7.4 km/h 46 % 0.0 mm
16:29 12.3 °C 1.0 °C 1024.9 hPa WSW 7.4 km/h 7.4 km/h 46 % 0.0 mm
16:44 12.1 °C 1.1 °C 1026.0 hPa SW 7.9 km/h 7.9 km/h 47 % 0.0 mm
16:49 11.9 °C 0.9 °C 1026.0 hPa SW 9.3 km/h 9.3 km/h 47 % 0.0 mm
16:54 11.7 °C 1.1 °C 1024.9 hPa WSW 7.6 km/h 7.6 km/h 48 % 0.0 mm
17:00 11.6 °C 0.9 °C 1024.9 hPa SW 3.2 km/h 8.0 km/h 48 % 0.0 mm
17:05 11.5 °C 1.2 °C 1024.9 hPa SW 4.8 km/h 8.0 km/h 49 % 0.0 mm
17:10 11.3 °C 0.9 °C 1026.0 hPa SW 3.2 km/h 6.4 km/h 49 % 0.0 mm
17:15 11.2 °C 1.2 °C 1026.0 hPa SW 4.8 km/h 6.4 km/h 50 % 0.0 mm
17:20 11.1 °C 1.0 °C 1026.0 hPa SW 4.8 km/h 6.4 km/h 50 % 0.0 mm
17:25 10.9 °C 1.2 °C 1024.9 hPa SW 4.8 km/h 6.4 km/h 51 % 0.0 mm
17:30 10.8 °C 1.1 °C 1024.9 hPa SW 6.9 km/h 6.9 km/h 51 % 0.0 mm
17:35 10.7 °C 1.2 °C 1024.9 hPa SW 4.8 km/h 9.7 km/h 52 % 0.0 mm
17:40 10.6 °C 1.2 °C 1024.9 hPa SW 4.8 km/h 11.3 km/h 52 % 0.0 mm
17:45 10.5 °C 1.1 °C 1024.9 hPa SW 4.8 km/h 11.3 km/h 52 % 0.0 mm
17:50 10.4 °C 0.9 °C 1024.9 hPa SW 4.8 km/h 8.0 km/h 52 % 0.0 mm
17:55 10.4 °C 0.9 °C 1024.9 hPa SW 4.8 km/h 8.0 km/h 52 % 0.0 mm
18:00 10.2 °C 0.8 °C 1024.9 hPa SW 5.6 km/h 5.6 km/h 52 % 0.0 mm
18:05 10.1 °C 0.7 °C 1024.9 hPa WSW 5.6 km/h 5.6 km/h 52 % 0.0 mm
18:10 10.0 °C 0.6 °C 1026.0 hPa SW 3.2 km/h 8.0 km/h 52 % 0.0 mm
18:15 9.9 °C 0.5 °C 1026.0 hPa SW 2.6 km/h 3.5 km/h 52 % 0.0 mm
18:20 9.8 °C 0.7 °C 1026.0 hPa WSW 3.7 km/h 5.8 km/h 53 % 0.0 mm
18:25 9.7 °C 0.6 °C 1026.0 hPa WSW 3.2 km/h 8.0 km/h 53 % 0.0 mm
18:35 9.4 °C 0.3 °C 1026.0 hPa SW 3.2 km/h 6.4 km/h 53 % 0.0 mm
18:40 9.3 °C 0.2 °C 1026.0 hPa WSW 1.6 km/h 4.8 km/h 53 % 0.0 mm
18:45 9.2 °C 0.1 °C 1026.0 hPa SW 3.2 km/h 4.8 km/h 53 % 0.0 mm
18:50 9.1 °C 0.0 °C 1026.0 hPa WSW 3.9 km/h 3.9 km/h 53 % 0.0 mm
18:55 9.0 °C -0.1 °C 1024.9 hPa WSW 3.2 km/h 4.8 km/h 53 % 0.0 mm
19:00 8.9 °C -0.2 °C 1024.9 hPa WSW 3.2 km/h 4.8 km/h 53 % 0.0 mm
19:05 8.7 °C -0.1 °C 1024.9 hPa SW 3.2 km/h 4.8 km/h 54 % 0.0 mm
19:10 8.6 °C -0.2 °C 1024.9 hPa SW 3.2 km/h 4.8 km/h 54 % 0.0 mm
19:15 8.6 °C -0.2 °C 1024.9 hPa SW 3.2 km/h 4.8 km/h 54 % 0.0 mm
19:20 8.5 °C -0.3 °C 1024.9 hPa WSW 3.2 km/h 6.4 km/h 54 % 0.0 mm
19:25 8.4 °C -0.4 °C 1024.9 hPa WSW 3.2 km/h 6.4 km/h 54 % 0.0 mm
19:30 8.2 °C -0.6 °C 1024.9 hPa WSW 3.2 km/h 4.8 km/h 54 % 0.0 mm
19:35 8.2 °C -0.6 °C 1024.9 hPa WSW 3.2 km/h 6.4 km/h 54 % 0.0 mm
19:40 8.2 °C -0.6 °C 1024.9 hPa WSW 3.2 km/h 4.8 km/h 54 % 0.0 mm
19:45 8.2 °C -0.6 °C 1024.9 hPa WSW 3.2 km/h 4.8 km/h 54 % 0.0 mm
19:50 8.0 °C -1.0 °C 1024.9 hPa WSW 3.2 km/h 3.2 km/h 53 % 0.0 mm
19:55 8.0 °C -1.0 °C 1023.9 hPa WSW 1.6 km/h 3.2 km/h 53 % 0.0 mm
20:00 8.0 °C -1.0 °C 1023.9 hPa WSW 1.6 km/h 3.2 km/h 53 % 0.0 mm
20:05 7.9 °C -1.1 °C 1023.9 hPa WSW 1.6 km/h 3.2 km/h 53 % 0.0 mm
20:10 7.9 °C -1.1 °C 1024.9 hPa Calm   3.2 km/h 53 % 0.0 mm
20:15 7.9 °C -1.1 °C 1024.9 hPa WSW 1.6 km/h 3.2 km/h 53 % 0.0 mm
20:20 7.8 °C -1.2 °C 1024.9 hPa SW 1.6 km/h 3.2 km/h 53 % 0.0 mm
20:25 7.7 °C -1.3 °C 1023.9 hPa SW 1.6 km/h 3.2 km/h 53 % 0.0 mm
20:30 7.6 °C -1.4 °C 1023.9 hPa WSW 1.6 km/h 3.2 km/h 53 % 0.0 mm
20:35 7.6 °C -1.4 °C 1023.9 hPa SW 1.9 km/h 2.3 km/h 53 % 0.0 mm
20:40 7.5 °C -1.5 °C 1023.9 hPa Calm   1.6 km/h 53 % 0.0 mm
20:45 7.4 °C -1.6 °C 1023.9 hPa Calm     53 % 0.0 mm
20:50 7.3 °C -1.9 °C 1023.9 hPa Calm     52 % 0.0 mm
20:55 7.3 °C -1.9 °C 1023.9 hPa WSW 1.6 km/h 1.6 km/h 52 % 0.0 mm
21:00 7.3 °C -1.9 °C 1023.9 hPa WSW 1.4 km/h 1.9 km/h 52 % 0.0 mm
21:05 7.4 °C -1.8 °C 1023.9 hPa SW 4.2 km/h 4.2 km/h 52 % 0.0 mm
21:10 7.5 °C -1.7 °C 1022.9 hPa WSW 3.2 km/h 4.8 km/h 52 % 0.0 mm
21:15 7.7 °C -1.6 °C 1022.9 hPa WSW 1.6 km/h 4.8 km/h 52 % 0.0 mm
21:20 7.8 °C -1.7 °C 1022.9 hPa WSW 3.7 km/h   51 % 0.0 mm
21:25 7.8 °C -1.7 °C 1023.9 hPa WSW 1.6 km/h 3.2 km/h 51 % 0.0 mm
21:30 7.9 °C -1.6 °C 1023.9 hPa WSW 1.6 km/h 3.2 km/h 51 % 0.0 mm
21:35 7.9 °C -1.7 °C 1023.9 hPa WSW 1.6 km/h 3.2 km/h 51 % 0.0 mm
21:45 7.3 °C -2.2 °C 1023.9 hPa WSW 1.6 km/h 3.2 km/h 51 % 0.0 mm
21:50 7.2 °C -2.3 °C 1023.9 hPa WSW 1.6 km/h 3.2 km/h 51 % 0.0 mm
21:55 7.2 °C -2.3 °C 1023.9 hPa SW 4.8 km/h 4.8 km/h 51 % 0.0 mm
22:00 7.1 °C -2.4 °C 1023.9 hPa SW 5.0 km/h 5.0 km/h 51 % 0.0 mm
22:05 7.0 °C -2.4 °C 1023.9 hPa WSW 4.7 km/h 5.3 km/h 51 % 0.0 mm
22:10 7.0 °C -2.4 °C 1022.9 hPa WSW 3.2 km/h 6.4 km/h 51 % 0.0 mm
22:15 7.0 °C -2.4 °C 1022.9 hPa SW 3.2 km/h 4.8 km/h 51 % 0.0 mm
22:20 7.0 °C -2.4 °C 1022.9 hPa SW 3.2 km/h 4.8 km/h 51 % 0.0 mm
22:25 7.1 °C -2.4 °C 1022.9 hPa SW 3.2 km/h 4.8 km/h 51 % 0.0 mm
22:30 7.3 °C -2.2 °C 1022.9 hPa SW 3.2 km/h 4.8 km/h 51 % 0.0 mm
22:35 7.2 °C -2.3 °C 1022.9 hPa WSW 3.2 km/h 4.8 km/h 51 % 0.0 mm
22:40 6.9 °C -2.6 °C 1022.9 hPa WSW 4.2 km/h 4.2 km/h 51 % 0.0 mm
22:50 6.8 °C -2.7 °C 1022.9 hPa WSW 3.2 km/h 4.8 km/h 51 % 0.0 mm
22:55 6.8 °C -2.7 °C 1022.9 hPa WSW 1.6 km/h 4.8 km/h 51 % 0.0 mm
23:00 6.9 °C -2.6 °C 1022.9 hPa WSW 3.2 km/h 4.8 km/h 51 % 0.0 mm
23:05 6.9 °C -2.6 °C 1022.9 hPa WSW 3.2 km/h 4.8 km/h 51 % 0.0 mm
23:10 7.0 °C -2.4 °C 1022.9 hPa WSW 5.6 km/h 5.6 km/h 51 % 0.0 mm
23:15 7.1 °C -2.4 °C 1022.9 hPa West 4.2 km/h 4.2 km/h 51 % 0.0 mm
23:20 7.2 °C -2.3 °C 1022.9 hPa WSW 4.7 km/h 4.7 km/h 51 % 0.0 mm
23:25 7.1 °C -2.4 °C 1022.9 hPa West 3.2 km/h 4.8 km/h 51 % 0.0 mm
23:30 7.3 °C -2.2 °C 1022.9 hPa WSW 3.2 km/h 3.2 km/h 51 % 0.0 mm
23:35 7.2 °C -2.3 °C 1022.9 hPa WSW 4.2 km/h 4.2 km/h 51 % 0.0 mm
23:40 7.2 °C -2.3 °C 1021.9 hPa WSW 1.6 km/h 4.8 km/h 51 % 0.0 mm
23:45 7.1 °C -2.4 °C 1021.9 hPa SW 3.7 km/h 3.7 km/h 51 % 0.0 mm
Meteo Sesrovires
Elogis d' Weather Underground - 3.25 mb

Guio original per  Jim McMurry - jmcmurry@mwt.net Adaptat per a la plantilla per  Wim van der Kuil - Leuven-Template.eu

Trobareu la nostra informacio del temps tambe a:

Weather Underground

AWEKAS